Sheridan, Oregon
Current Conditions -  °F | °C
As of 12:04 PM on Monday 26 Jan 2015 (Local Time) from KMMV Reporting Station
Overcast Overcast  
Wind Chill: 45°   Ceiling: 300
Heat Index: 45°   Visibility: 7mi
Dew Point: 43°   Wind: 3mph
Humidity: 93%   Direction: 120°ESE
Pressure: 30.04"   Gusts: NA
Location:  45.1°N, 123.39°W
Report Text: KMMV 262004Z AUTO 12003KT 7SM OVC003 07/06 A3004 RMK AO2 T00720061
Loading
Personal Weather Stations






























Interactive Weather Map New forecast layout! Learn more

10-Day Weather Forecast

Advertisements
Track Severe Weather on mobile